createdAt,value
2023-05-24T00:00:56.053Z,97369.19
2023-05-24T00:03:24.645Z,97364.19
2023-05-24T00:05:54.391Z,97372.06
2023-05-24T00:08:22.652Z,97368.25
2023-05-24T00:10:50.821Z,97371.06
2023-05-24T00:13:19.241Z,97357.41
2023-05-24T00:15:47.408Z,97355.16
2023-05-24T00:18:17.827Z,97360.97
2023-05-24T00:20:46.454Z,97359.84
2023-05-24T00:23:16.328Z,97361.31
2023-05-24T00:25:44.627Z,97367.28
2023-05-24T00:28:12.789Z,97369.16
2023-05-24T00:30:41.238Z,97367.81
2023-05-24T00:33:09.636Z,97373.00
2023-05-24T00:35:37.951Z,97360.03
2023-05-24T00:38:06.336Z,97372.91
2023-05-24T00:40:36.422Z,97369.25
2023-05-24T00:43:04.658Z,97371.97
2023-05-24T00:45:33.874Z,97368.47
2023-05-24T00:48:02.663Z,97376.50
2023-05-24T00:50:31.151Z,97344.69
2023-05-24T00:53:02.156Z,97377.34
2023-05-24T00:55:30.957Z,97381.63
2023-05-24T00:58:00.777Z,97375.06
2023-05-24T01:00:30.595Z,97377.19
2023-05-24T01:03:01.384Z,97375.41
2023-05-24T01:05:29.801Z,97373.84
2023-05-24T01:08:11.972Z,97375.13
2023-05-24T01:10:47.256Z,97371.88
2023-05-24T01:13:25.743Z,97377.44
2023-05-24T01:16:01.169Z,97373.78
2023-05-24T01:18:34.574Z,97378.97
2023-05-24T01:21:15.053Z,97387.75
2023-05-24T01:23:48.887Z,97337.00
2023-05-24T01:26:26.555Z,97388.13
2023-05-24T01:28:56.715Z,97399.53
2023-05-24T01:31:25.796Z,97387.25
2023-05-24T01:33:54.685Z,97391.66
2023-05-24T01:36:22.983Z,97395.41
2023-05-24T01:38:53.008Z,97395.22
2023-05-24T01:41:33.143Z,97397.81
2023-05-24T01:44:12.397Z,97395.94
2023-05-24T01:46:40.756Z,97398.47
2023-05-24T01:49:19.252Z,97397.81
2023-05-24T01:51:52.051Z,97385.94
2023-05-24T01:54:24.996Z,97403.34
2023-05-24T01:56:55.169Z,97400.78
2023-05-24T01:59:27.294Z,97390.97
2023-05-24T02:01:56.137Z,97396.06
2023-05-24T02:04:24.874Z,97394.22
2023-05-24T02:06:53.201Z,97398.66
2023-05-24T02:09:21.496Z,97396.59
2023-05-24T02:11:49.706Z,97399.84
2023-05-24T02:14:20.107Z,97383.47
2023-05-24T02:16:51.005Z,97408.63
2023-05-24T02:19:19.284Z,97396.69
2023-05-24T02:21:47.609Z,97393.03
2023-05-24T02:24:16.708Z,97405.19
2023-05-24T02:26:44.907Z,97390.13
2023-05-24T02:29:13.150Z,97404.16
2023-05-24T02:31:41.476Z,97418.13
2023-05-24T02:34:11.035Z,97403.00
2023-05-24T02:36:39.155Z,97396.88
2023-05-24T02:39:08.002Z,97401.03
2023-05-24T02:41:36.084Z,97402.31
2023-05-24T02:44:04.222Z,97400.69
2023-05-24T02:46:32.484Z,97394.28
2023-05-24T02:49:00.737Z,97394.28
2023-05-24T02:51:30.458Z,97401.53
2023-05-24T02:53:58.607Z,97413.41
2023-05-24T02:56:27.921Z,97413.72
2023-05-24T02:58:56.630Z,97410.56
2023-05-24T03:01:25.035Z,97403.75
2023-05-24T03:03:53.468Z,97412.88
2023-05-24T03:06:21.859Z,97394.91
2023-05-24T03:08:51.676Z,97419.97
2023-05-24T03:11:22.359Z,97421.66
2023-05-24T03:13:50.793Z,97412.91
2023-05-24T03:16:19.993Z,97414.66
2023-05-24T03:18:50.843Z,97419.94
2023-05-24T03:21:21.107Z,97419.63
2023-05-24T03:23:49.382Z,97423.88
2023-05-24T03:26:20.810Z,97428.94
2023-05-24T03:28:50.819Z,97424.72
2023-05-24T03:31:21.094Z,97423.09
2023-05-24T03:33:49.411Z,97411.22
2023-05-24T03:36:17.622Z,97420.81
2023-05-24T03:38:45.956Z,97430.72
2023-05-24T03:41:14.310Z,97432.03
2023-05-24T03:43:44.116Z,97432.34
2023-05-24T03:46:12.350Z,97420.41
2023-05-24T03:48:40.558Z,97435.53
2023-05-24T03:51:09.469Z,97438.25
2023-05-24T03:53:37.618Z,97376.91
2023-05-24T03:56:05.806Z,97441.94
2023-05-24T03:58:33.988Z,97439.53
2023-05-24T04:01:03.722Z,97410.34
2023-05-24T04:03:34.384Z,97439.03
2023-05-24T04:06:02.621Z,97444.16
2023-05-24T04:08:32.115Z,97444.69
2023-05-24T04:11:00.411Z,97445.41
2023-05-24T04:13:28.750Z,97455.81
2023-05-24T04:15:56.937Z,97456.31
2023-05-24T04:18:26.738Z,97454.38
2023-05-24T04:20:54.939Z,97457.88
2023-05-24T04:23:23.402Z,97467.00
2023-05-24T04:25:51.731Z,97466.44
2023-05-24T04:28:22.321Z,97468.50
2023-05-24T04:30:50.591Z,97465.19
2023-05-24T04:33:18.825Z,97462.78
2023-05-24T04:35:48.497Z,97437.66
2023-05-24T04:38:17.284Z,97471.03
2023-05-24T04:40:45.880Z,97458.06
2023-05-24T04:43:14.723Z,97467.63
2023-05-24T04:45:43.216Z,97466.38
2023-05-24T04:48:11.362Z,97464.34
2023-05-24T04:50:39.725Z,97474.75
2023-05-24T04:53:09.520Z,97481.41
2023-05-24T04:55:37.677Z,97485.69
2023-05-24T04:58:05.839Z,97483.72
2023-05-24T05:00:34.087Z,97484.53
2023-05-24T05:03:02.406Z,97489.63
2023-05-24T05:05:31.305Z,97488.63
2023-05-24T05:07:59.645Z,97489.50
2023-05-24T05:10:29.321Z,97488.38
2023-05-24T05:12:57.535Z,97488.13
2023-05-24T05:15:26.298Z,97482.41
2023-05-24T05:17:54.668Z,97481.78
2023-05-24T05:20:24.115Z,97459.59
2023-05-24T05:22:52.386Z,97489.31
2023-05-24T05:25:20.685Z,97485.56
2023-05-24T05:27:50.286Z,97482.84
2023-05-24T05:30:18.499Z,97490.84
2023-05-24T05:32:47.089Z,97480.09
2023-05-24T05:35:15.485Z,97493.84
2023-05-24T05:37:43.638Z,97493.09
2023-05-24T05:40:12.877Z,97501.88
2023-05-24T05:42:41.349Z,97483.53
2023-05-24T05:45:12.012Z,97498.97
2023-05-24T05:47:40.834Z,97503.28
2023-05-24T05:50:09.618Z,97501.94
2023-05-24T05:52:37.819Z,97497.56
2023-05-24T05:55:06.853Z,97502.59
2023-05-24T05:57:35.405Z,97503.22
2023-05-24T06:00:03.977Z,97510.44
2023-05-24T06:02:33.649Z,97510.63
2023-05-24T06:05:02.040Z,97509.69
2023-05-24T06:07:30.802Z,97510.53
2023-05-24T06:09:58.985Z,97513.97
2023-05-24T06:12:27.324Z,97511.25
2023-05-24T06:14:57.757Z,97522.34
2023-05-24T06:17:25.970Z,97523.19
2023-05-24T06:19:56.115Z,97524.06
2023-05-24T06:22:24.470Z,97522.88
2023-05-24T06:24:52.897Z,97525.31
2023-05-24T06:27:21.592Z,97531.66
2023-05-24T06:29:50.173Z,97529.09
2023-05-24T06:32:18.551Z,97529.34
2023-05-24T06:34:46.789Z,97532.75
2023-05-24T06:37:16.518Z,97522.78
2023-05-24T06:39:44.713Z,97530.53
2023-05-24T06:42:12.852Z,97540.63
2023-05-24T06:44:40.979Z,97544.19
2023-05-24T06:47:09.651Z,97538.66
2023-05-24T06:49:38.333Z,97549.16
2023-05-24T06:52:07.945Z,97544.56
2023-05-24T06:54:37.536Z,97547.31
2023-05-24T06:57:06.383Z,97533.38
2023-05-24T06:59:34.576Z,97556.00
2023-05-24T07:02:04.001Z,97543.63
2023-05-24T07:04:32.814Z,97552.59
2023-05-24T07:07:01.323Z,97551.81
2023-05-24T07:09:29.806Z,97554.97
2023-05-24T07:11:59.946Z,97554.81
2023-05-24T07:14:28.143Z,97562.84
2023-05-24T07:16:57.791Z,97557.22
2023-05-24T07:19:29.260Z,97553.00
2023-05-24T07:21:58.108Z,97564.47
2023-05-24T07:24:26.546Z,97540.69
2023-05-24T07:26:56.916Z,97559.75
2023-05-24T07:29:27.142Z,97564.03
2023-05-24T07:31:58.261Z,97562.81
2023-05-24T07:34:30.302Z,97566.06
2023-05-24T07:37:00.946Z,97573.25
2023-05-24T07:39:29.436Z,97556.06
2023-05-24T07:41:57.912Z,97574.09
2023-05-24T07:44:27.506Z,97574.59
2023-05-24T07:46:55.994Z,97571.34
2023-05-24T07:49:24.495Z,97549.13
2023-05-24T07:51:53.219Z,97567.69
2023-05-24T07:54:21.710Z,97575.63
2023-05-24T07:56:50.442Z,97576.38
2023-05-24T07:59:19.289Z,97577.31
2023-05-24T08:01:49.164Z,97585.03
2023-05-24T08:04:17.348Z,97582.47
2023-05-24T08:06:46.942Z,97580.91
2023-05-24T08:09:15.316Z,97584.56
2023-05-24T08:11:43.606Z,97585.69
2023-05-24T08:14:11.913Z,97587.91
2023-05-24T08:16:40.179Z,97581.81
2023-05-24T08:19:09.852Z,97586.41
2023-05-24T08:21:38.500Z,97592.06
2023-05-24T08:24:09.303Z,97587.81
2023-05-24T08:26:38.281Z,97585.78
2023-05-24T08:29:06.518Z,97600.31
2023-05-24T08:31:34.721Z,97594.09
2023-05-24T08:34:03.604Z,97597.84
2023-05-24T08:36:33.179Z,97597.66
2023-05-24T08:39:01.392Z,97600.91
2023-05-24T08:41:30.181Z,97604.84
2023-05-24T08:44:02.329Z,97609.94
2023-05-24T08:46:30.883Z,97609.41
2023-05-24T08:49:00.430Z,97617.75
2023-05-24T08:51:29.313Z,97610.97
2023-05-24T08:53:59.947Z,97623.66
2023-05-24T08:56:29.141Z,97627.47
2023-05-24T08:58:57.703Z,97621.78
2023-05-24T09:01:28.933Z,97632.63
2023-05-24T09:04:01.125Z,97631.06
2023-05-24T09:06:29.346Z,97626.28
2023-05-24T09:09:01.140Z,97638.38
2023-05-24T09:11:30.472Z,97639.22
2023-05-24T09:13:58.905Z,97643.22
2023-05-24T09:16:27.930Z,97640.50
2023-05-24T09:18:56.270Z,97629.50
2023-05-24T09:21:25.183Z,97625.97
2023-05-24T09:23:54.700Z,97635.19
2023-05-24T09:26:25.105Z,97639.19
2023-05-24T09:28:56.775Z,97631.91
2023-05-24T09:31:34.826Z,97641.50
2023-05-24T09:34:03.433Z,97647.19
2023-05-24T09:36:34.352Z,97636.97
2023-05-24T09:39:10.688Z,97649.56
2023-05-24T09:41:40.691Z,97627.31
2023-05-24T09:44:08.924Z,97656.22
2023-05-24T09:46:38.988Z,97643.97
2023-05-24T09:49:08.730Z,97635.66
2023-05-24T09:51:39.573Z,97655.72
2023-05-24T09:54:08.365Z,97652.16
2023-05-24T09:56:36.864Z,97652.22
2023-05-24T09:59:10.451Z,97652.00
2023-05-24T10:01:39.021Z,97655.06
2023-05-24T10:04:09.984Z,97653.94
2023-05-24T10:06:38.678Z,97648.50
2023-05-24T10:09:09.929Z,97648.34
2023-05-24T10:11:38.615Z,97651.91
2023-05-24T10:14:07.596Z,97649.91
2023-05-24T10:16:38.366Z,97640.00
2023-05-24T10:19:07.531Z,97641.75
2023-05-24T10:21:40.286Z,97652.69
2023-05-24T10:24:10.873Z,97652.00
2023-05-24T10:26:40.745Z,97645.25
2023-05-24T10:29:19.267Z,97656.28
2023-05-24T10:31:49.799Z,97661.38
2023-05-24T10:34:18.304Z,97654.09
2023-05-24T10:36:46.804Z,97654.66
2023-05-24T10:39:15.149Z,97654.84
2023-05-24T10:41:44.270Z,97664.03
2023-05-24T10:44:13.588Z,97649.00
2023-05-24T10:47:11.229Z,97658.50
2023-05-24T10:49:40.448Z,97630.22
2023-05-24T10:52:10.177Z,97637.78
2023-05-24T10:54:41.305Z,97662.56
2023-05-24T10:57:24.649Z,97661.91
2023-05-24T10:59:52.942Z,97650.91
2023-05-24T11:02:23.145Z,97664.13
2023-05-24T11:04:51.532Z,97656.88
2023-05-24T11:07:21.088Z,97660.09
2023-05-24T11:09:54.444Z,97649.56
2023-05-24T11:12:22.934Z,97652.31
2023-05-24T11:14:52.780Z,97660.09
2023-05-24T11:17:23.626Z,97661.72
2023-05-24T11:19:53.519Z,97660.53
2023-05-24T11:22:23.073Z,97656.44
2023-05-24T11:24:53.376Z,97656.03
2023-05-24T11:27:21.794Z,97659.88
2023-05-24T11:29:50.395Z,97651.66
2023-05-24T11:32:20.305Z,97632.66
2023-05-24T11:34:51.302Z,97654.56
2023-05-24T11:37:28.634Z,97683.53
2023-05-24T11:40:06.544Z,97653.09
2023-05-24T11:42:35.370Z,97649.66
2023-05-24T11:45:03.630Z,97650.50
2023-05-24T11:47:32.136Z,97644.34
2023-05-24T11:50:01.791Z,97630.44
2023-05-24T11:52:30.544Z,97648.22
2023-05-24T11:54:58.677Z,97649.56
2023-05-24T11:57:32.872Z,97649.47
2023-05-24T12:00:01.212Z,97644.91
2023-05-24T12:02:31.630Z,97646.41
2023-05-24T12:05:10.076Z,97643.16
2023-05-24T12:07:38.412Z,97652.91
2023-05-24T12:10:07.903Z,97659.00
2023-05-24T12:12:45.702Z,97648.41
2023-05-24T12:15:15.025Z,97650.25
2023-05-24T12:17:43.433Z,97649.16
2023-05-24T12:20:15.438Z,97644.72
2023-05-24T12:22:50.697Z,97646.94
2023-05-24T12:25:21.625Z,97627.34
2023-05-24T12:27:54.539Z,97650.13
2023-05-24T12:30:24.393Z,97647.38
2023-05-24T12:32:54.462Z,97635.41
2023-05-24T12:35:24.436Z,97629.66
2023-05-24T12:38:00.270Z,97635.47
2023-05-24T12:40:28.586Z,97650.44
2023-05-24T12:42:58.401Z,97632.56
2023-05-24T12:45:27.836Z,97655.13
2023-05-24T12:47:57.814Z,97623.09
2023-05-24T12:50:28.302Z,97609.59
2023-05-24T12:52:58.015Z,97649.06
2023-05-24T12:55:28.280Z,97631.38
2023-05-24T12:57:57.163Z,97632.25
2023-05-24T13:00:27.296Z,97622.66
2023-05-24T13:02:58.691Z,97629.59
2023-05-24T13:05:30.113Z,97629.59
2023-05-24T13:07:58.595Z,97631.44
2023-05-24T13:10:27.690Z,97626.25
2023-05-24T13:12:56.427Z,97634.19
2023-05-24T13:15:27.389Z,97631.44
2023-05-24T13:17:56.478Z,97620.69
2023-05-24T13:20:24.875Z,97622.84
2023-05-24T13:22:54.620Z,97630.41
2023-05-24T13:25:22.991Z,97628.09
2023-05-24T13:27:51.250Z,97637.19
2023-05-24T13:30:27.549Z,97624.31
2023-05-24T13:32:56.864Z,97623.75
2023-05-24T13:35:25.677Z,97627.84
2023-05-24T13:37:58.140Z,97613.03
2023-05-24T13:40:26.372Z,97638.81
2023-05-24T13:42:56.933Z,97627.94
2023-05-24T13:45:25.227Z,97603.19
2023-05-24T13:47:54.071Z,97574.97
2023-05-24T13:50:24.006Z,97617.69
2023-05-24T13:52:52.711Z,97610.78
2023-05-24T13:55:22.470Z,97624.06
2023-05-24T13:57:52.377Z,97616.34
2023-05-24T14:00:21.480Z,97614.16
2023-05-24T14:02:50.125Z,97621.13
2023-05-24T14:05:27.493Z,97615.28
2023-05-24T14:07:57.560Z,97607.34
2023-05-24T14:10:27.376Z,97609.22
2023-05-24T14:13:12.897Z,97619.63
2023-05-24T14:15:45.032Z,97616.06
2023-05-24T14:18:13.766Z,97616.78
2023-05-24T14:20:41.982Z,97614.97
2023-05-24T14:23:10.396Z,97610.94
2023-05-24T14:25:41.460Z,97618.38
2023-05-24T14:28:09.922Z,97623.94
2023-05-24T14:30:38.894Z,97624.91
2023-05-24T14:33:08.602Z,97630.94
2023-05-24T14:35:40.074Z,97630.00
2023-05-24T14:38:08.984Z,97633.56
2023-05-24T14:40:39.182Z,97619.69
2023-05-24T14:43:10.877Z,97636.81
2023-05-24T14:45:41.700Z,97640.53
2023-05-24T14:48:12.032Z,97631.13
2023-05-24T14:50:41.653Z,97642.19
2023-05-24T14:53:12.549Z,97644.69
2023-05-24T14:55:43.121Z,97563.09
2023-05-24T14:58:13.955Z,97641.50
2023-05-24T15:00:43.330Z,97627.72
2023-05-24T15:03:13.030Z,97644.06
2023-05-24T15:05:42.310Z,97606.34
2023-05-24T15:08:11.099Z,97642.19
2023-05-24T15:10:40.462Z,97630.13
2023-05-24T15:13:08.794Z,97641.50
2023-05-24T15:15:38.500Z,97565.72
2023-05-24T15:18:08.857Z,97642.66
2023-05-24T15:20:37.438Z,97645.63
2023-05-24T15:23:06.504Z,97645.63
2023-05-24T15:25:34.722Z,97640.53
2023-05-24T15:28:03.274Z,97643.59
2023-05-24T15:30:31.784Z,97638.16
2023-05-24T15:33:01.469Z,97631.22
2023-05-24T15:35:29.774Z,97632.91
2023-05-24T15:37:57.980Z,97638.47
2023-05-24T15:40:26.410Z,97620.34
2023-05-24T15:42:54.716Z,97641.84
2023-05-24T15:45:22.922Z,97647.28
2023-05-24T15:47:51.320Z,97641.44
2023-05-24T15:50:31.757Z,97644.97
2023-05-24T15:53:09.236Z,97647.88
2023-05-24T15:55:39.137Z,97644.50
2023-05-24T15:58:07.396Z,97648.97
2023-05-24T16:00:35.723Z,97647.47
2023-05-24T16:03:04.087Z,97651.47
2023-05-24T16:05:33.839Z,97659.91
2023-05-24T16:08:02.825Z,97657.31
2023-05-24T16:10:31.003Z,97642.28
2023-05-24T16:12:59.902Z,97670.97
2023-05-24T16:15:30.198Z,97660.03
2023-05-24T16:17:58.444Z,97641.00
2023-05-24T16:20:26.823Z,97648.47
2023-05-24T16:22:56.605Z,97646.22
2023-05-24T16:25:25.919Z,97654.78
2023-05-24T16:27:56.493Z,97652.91
2023-05-24T16:30:24.827Z,97660.84
2023-05-24T16:32:53.141Z,97663.34
2023-05-24T16:35:21.363Z,97662.56
2023-05-24T16:37:50.131Z,97658.28
2023-05-24T16:40:19.788Z,97654.41
2023-05-24T16:42:48.575Z,97663.41
2023-05-24T16:45:16.950Z,97660.59
2023-05-24T16:47:45.296Z,97667.03
2023-05-24T16:50:15.949Z,97663.47
2023-05-24T16:52:44.468Z,97654.91
2023-05-24T16:55:13.609Z,97666.25
2023-05-24T16:57:43.219Z,97621.00
2023-05-24T17:00:12.478Z,97654.34
2023-05-24T17:02:40.761Z,97661.19
2023-05-24T17:05:09.683Z,97662.00
2023-05-24T17:07:37.976Z,97642.97
2023-05-24T17:10:07.233Z,97654.84
2023-05-24T17:12:35.812Z,97656.72
2023-05-24T17:15:07.087Z,97640.53
2023-05-24T17:17:35.353Z,97654.97
2023-05-24T17:20:03.792Z,97651.44
2023-05-24T17:22:32.043Z,97622.03
2023-05-24T17:25:00.358Z,97649.41
2023-05-24T17:27:28.568Z,97644.91
2023-05-24T17:29:57.054Z,97612.81
2023-05-24T17:32:26.959Z,97649.41
2023-05-24T17:34:55.166Z,97650.19
2023-05-24T17:37:23.330Z,97656.72
2023-05-24T17:39:52.671Z,97655.41
2023-05-24T17:42:20.825Z,97655.25
2023-05-24T17:44:49.029Z,97649.50
2023-05-24T17:47:17.260Z,97646.72
2023-05-24T17:49:46.859Z,97653.00
2023-05-24T17:52:15.329Z,97652.84
2023-05-24T17:54:43.507Z,97657.75
2023-05-24T17:57:11.782Z,97660.13
2023-05-24T17:59:39.993Z,97642.31
2023-05-24T18:02:08.086Z,97484.69
2023-05-24T18:04:36.279Z,97663.69
2023-05-24T18:07:07.121Z,97664.56
2023-05-24T18:09:35.809Z,97663.63
2023-05-24T18:12:04.025Z,97662.88
2023-05-24T18:14:32.285Z,97661.75
2023-05-24T18:17:00.620Z,97643.84
2023-05-24T18:19:28.980Z,97678.31
2023-05-24T18:21:58.190Z,97674.03
2023-05-24T18:24:27.878Z,97690.66
2023-05-24T18:26:56.196Z,97685.38
2023-05-24T18:29:24.413Z,97686.53
2023-05-24T18:31:53.149Z,97699.66
2023-05-24T18:34:21.493Z,97700.31
2023-05-24T18:36:49.979Z,97702.94
2023-05-24T18:39:19.158Z,97705.78
2023-05-24T18:41:48.726Z,97660.09
2023-05-24T18:44:17.023Z,97713.41
2023-05-24T18:46:45.297Z,97715.97
2023-05-24T18:49:14.505Z,97716.47
2023-05-24T18:51:42.719Z,97708.81
2023-05-24T18:54:11.095Z,97724.31
2023-05-24T18:56:39.280Z,97728.38
2023-05-24T18:59:10.913Z,97739.72
2023-05-24T19:01:40.672Z,97738.38
2023-05-24T19:04:08.882Z,97748.25
2023-05-24T19:06:37.550Z,97744.06
2023-05-24T19:09:05.700Z,97749.53
2023-05-24T19:11:33.885Z,97757.38
2023-05-24T19:14:02.107Z,97730.53
2023-05-24T19:16:31.790Z,97738.97
2023-05-24T19:19:00.133Z,97758.81
2023-05-24T19:21:29.351Z,97773.72
2023-05-24T19:23:57.550Z,97763.31
2023-05-24T19:26:26.101Z,97772.16
2023-05-24T19:28:54.368Z,97760.34
2023-05-24T19:31:25.219Z,97782.66
2023-05-24T19:34:00.659Z,97773.22
2023-05-24T19:36:32.962Z,97783.03
2023-05-24T19:39:01.694Z,97782.72
2023-05-24T19:41:30.916Z,97790.69
2023-05-24T19:43:59.493Z,97785.66
2023-05-24T19:46:28.320Z,97790.75
2023-05-24T19:48:57.889Z,97787.31
2023-05-24T19:51:26.085Z,97797.75
2023-05-24T19:53:54.338Z,97796.88
2023-05-24T19:56:23.646Z,97796.03
2023-05-24T19:58:52.350Z,97798.13
2023-05-24T20:01:20.655Z,97805.00
2023-05-24T20:03:49.517Z,97798.66
2023-05-24T20:06:19.625Z,97799.66
2023-05-24T20:08:48.310Z,97803.16
2023-05-24T20:11:16.562Z,97795.13
2023-05-24T20:13:44.886Z,97790.97
2023-05-24T20:16:13.419Z,97798.81
2023-05-24T20:18:41.642Z,97797.81
2023-05-24T20:21:09.903Z,97810.03
2023-05-24T20:23:39.513Z,97804.69
2023-05-24T20:26:07.803Z,97806.13
2023-05-24T20:28:36.057Z,97801.69
2023-05-24T20:31:04.472Z,97806.28
2023-05-24T20:33:33.732Z,97799.19
2023-05-24T20:36:01.965Z,97787.25
2023-05-24T20:38:30.104Z,97798.28
2023-05-24T20:40:59.764Z,97791.78
2023-05-24T20:43:28.029Z,97795.16
2023-05-24T20:45:56.520Z,97788.63
2023-05-24T20:48:25.836Z,97792.47
2023-05-24T20:50:54.087Z,97802.19
2023-05-24T20:53:22.185Z,97807.47
2023-05-24T20:55:50.376Z,97815.75
2023-05-24T20:58:19.924Z,97738.72
2023-05-24T21:00:48.376Z,97803.06
2023-05-24T21:03:16.958Z,97739.03
2023-05-24T21:05:45.636Z,97803.22
2023-05-24T21:08:14.096Z,97805.94
2023-05-24T21:10:42.419Z,97805.13
2023-05-24T21:13:10.874Z,97804.94
2023-05-24T21:15:41.585Z,97806.00
2023-05-24T21:18:11.585Z,97806.06
2023-05-24T21:20:40.116Z,97810.28
2023-05-24T21:23:08.508Z,97809.84
2023-05-24T21:25:36.875Z,97815.31
2023-05-24T21:28:05.225Z,97817.41
2023-05-24T21:30:33.513Z,97821.78
2023-05-24T21:33:03.451Z,97815.94
2023-05-24T21:35:32.719Z,97830.81
2023-05-24T21:38:01.027Z,97819.00
2023-05-24T21:40:29.257Z,97824.13
2023-05-24T21:42:57.602Z,97831.66
2023-05-24T21:45:25.940Z,97822.09
2023-05-24T21:47:54.266Z,97748.19
2023-05-24T21:50:24.283Z,97833.38
2023-05-24T21:52:52.784Z,97829.88
2023-05-24T21:55:21.096Z,97834.22
2023-05-24T21:57:49.547Z,97823.53
2023-05-24T22:00:20.069Z,97832.38
2023-05-24T22:02:48.687Z,97833.22
2023-05-24T22:05:17.189Z,97820.84
2023-05-24T22:07:46.899Z,97837.81
2023-05-24T22:10:15.276Z,97809.81
2023-05-24T22:12:43.609Z,97826.13
2023-05-24T22:15:12.364Z,97835.81
2023-05-24T22:17:41.186Z,97807.06
2023-05-24T22:20:10.817Z,97836.44
2023-05-24T22:22:40.385Z,97834.84
2023-05-24T22:25:14.867Z,97830.25
2023-05-24T22:27:43.488Z,97822.16
2023-05-24T22:30:13.242Z,97838.25
2023-05-24T22:32:41.684Z,97827.69
2023-05-24T22:35:10.424Z,97833.16
2023-05-24T22:37:38.783Z,97822.91
2023-05-24T22:40:08.187Z,97815.28
2023-05-24T22:42:37.961Z,97830.91
2023-05-24T22:45:07.321Z,97844.03
2023-05-24T22:47:35.701Z,97850.00
2023-05-24T22:50:04.921Z,97793.97
2023-05-24T22:52:34.088Z,97830.06
2023-05-24T22:55:02.374Z,97833.56
2023-05-24T22:57:31.026Z,97833.50
2023-05-24T23:00:01.196Z,97836.09
2023-05-24T23:02:29.805Z,97827.94
2023-05-24T23:05:00.485Z,97830.66
2023-05-24T23:07:28.988Z,97827.69
2023-05-24T23:09:58.024Z,97833.13
2023-05-24T23:12:26.666Z,97828.88
2023-05-24T23:14:58.465Z,97822.00
2023-05-24T23:17:28.416Z,97829.28
2023-05-24T23:19:56.839Z,97825.91
2023-05-24T23:22:26.533Z,97831.19
2023-05-24T23:24:54.906Z,97825.13
2023-05-24T23:27:23.924Z,97824.25
2023-05-24T23:29:52.314Z,97823.41
2023-05-24T23:32:20.637Z,97823.41
2023-05-24T23:34:50.323Z,97833.75
2023-05-24T23:37:18.766Z,97831.00
2023-05-24T23:39:47.168Z,97818.47
2023-05-24T23:42:16.169Z,97816.69
2023-05-24T23:44:44.585Z,97821.28
2023-05-24T23:47:13.135Z,97801.97
2023-05-24T23:49:41.505Z,97813.31
2023-05-24T23:52:12.299Z,97813.44
2023-05-24T23:54:40.854Z,97826.69
2023-05-24T23:57:10.217Z,97829.31
2023-05-24T23:59:38.784Z,97796.41
